createdAt,value
2023-10-20T00:00:55.885Z,12.55
2023-10-20T00:03:22.879Z,12.32
2023-10-20T00:05:49.866Z,12.03
2023-10-20T00:08:16.842Z,12.40
2023-10-20T00:10:43.802Z,13.23
2023-10-20T00:13:10.732Z,13.45
2023-10-20T00:15:38.325Z,13.95
2023-10-20T00:18:05.778Z,12.80
2023-10-20T00:20:32.889Z,13.43
2023-10-20T00:22:59.849Z,13.55
2023-10-20T00:25:26.795Z,13.02
2023-10-20T00:27:53.666Z,13.88
2023-10-20T00:30:20.741Z,14.27
2023-10-20T00:32:47.691Z,14.13
2023-10-20T00:35:15.144Z,14.60
2023-10-20T00:37:43.200Z,14.02
2023-10-20T00:40:12.828Z,13.50
2023-10-20T00:42:39.848Z,14.27
2023-10-20T00:45:08.386Z,13.63
2023-10-20T00:47:36.379Z,14.55
2023-10-20T00:50:03.691Z,14.68
2023-10-20T00:52:31.002Z,14.32
2023-10-20T00:55:00.293Z,12.93
2023-10-20T00:57:27.464Z,13.80
2023-10-20T00:59:54.546Z,14.45
2023-10-20T01:02:21.723Z,14.10
2023-10-20T01:04:49.189Z,14.82
2023-10-20T01:07:16.474Z,14.73
2023-10-20T01:09:46.472Z,13.68
2023-10-20T01:12:13.371Z,13.95
2023-10-20T01:14:40.546Z,14.57
2023-10-20T01:17:08.448Z,14.65
2023-10-20T01:19:35.355Z,13.90
2023-10-20T01:22:02.270Z,13.73
2023-10-20T01:24:29.381Z,15.68
2023-10-20T01:26:56.571Z,16.40
2023-10-20T01:29:23.553Z,14.00
2023-10-20T01:31:51.345Z,15.07
2023-10-20T01:34:18.473Z,15.40
2023-10-20T01:36:45.494Z,16.80
2023-10-20T01:39:12.394Z,16.33
2023-10-20T01:41:39.952Z,16.08
2023-10-20T01:44:06.969Z,16.60
2023-10-20T01:46:34.137Z,16.38
2023-10-20T01:49:01.092Z,17.50
2023-10-20T01:51:28.267Z,16.27
2023-10-20T01:53:56.046Z,18.80
2023-10-20T01:56:23.835Z,19.63
2023-10-20T01:58:50.856Z,19.52
2023-10-20T02:01:17.857Z,17.40
2023-10-20T02:03:44.907Z,18.42
2023-10-20T02:06:12.166Z,17.08
2023-10-20T02:08:39.126Z,17.37
2023-10-20T02:11:06.190Z,17.15
2023-10-20T02:13:33.225Z,19.17
2023-10-20T02:16:01.008Z,18.63
2023-10-20T02:18:28.510Z,18.50
2023-10-20T02:21:01.071Z,18.07
2023-10-20T02:23:28.745Z,18.08
2023-10-20T02:26:05.067Z,17.80
2023-10-20T02:28:36.168Z,16.75
2023-10-20T02:31:17.119Z,17.73
2023-10-20T02:33:44.642Z,17.37
2023-10-20T02:36:20.245Z,18.27
2023-10-20T02:38:48.621Z,19.20
2023-10-20T02:41:16.363Z,17.95
2023-10-20T02:43:43.270Z,18.13
2023-10-20T02:46:10.434Z,18.93
2023-10-20T02:48:37.422Z,18.85
2023-10-20T02:51:13.060Z,18.13
2023-10-20T02:53:42.105Z,18.30
2023-10-20T02:56:12.176Z,17.40
2023-10-20T02:58:40.022Z,17.57
2023-10-20T03:01:08.364Z,17.73
2023-10-20T03:03:35.675Z,17.95
2023-10-20T03:06:05.073Z,16.65
2023-10-20T03:08:33.015Z,17.38
2023-10-20T03:11:00.405Z,17.93
2023-10-20T03:13:29.204Z,17.75
2023-10-20T03:15:56.115Z,16.52
2023-10-20T03:18:23.087Z,16.58
2023-10-20T03:20:51.041Z,16.35
2023-10-20T03:23:19.035Z,15.13
2023-10-20T03:25:46.113Z,16.30
2023-10-20T03:28:12.980Z,15.52
2023-10-20T03:30:41.665Z,16.75
2023-10-20T03:33:10.635Z,17.23
2023-10-20T03:35:38.151Z,16.70
2023-10-20T03:38:06.228Z,15.90
2023-10-20T03:40:33.194Z,16.20
2023-10-20T03:43:00.134Z,16.33
2023-10-20T03:45:27.071Z,16.50
2023-10-20T03:47:55.140Z,16.67
2023-10-20T03:50:22.086Z,16.23
2023-10-20T03:52:49.815Z,15.70
2023-10-20T03:55:16.906Z,16.67
2023-10-20T03:57:46.084Z,15.15
2023-10-20T04:00:15.335Z,15.90
2023-10-20T04:02:42.589Z,15.43
2023-10-20T04:05:09.861Z,14.98
2023-10-20T04:07:36.792Z,16.80
2023-10-20T04:10:03.828Z,17.25
2023-10-20T04:12:30.823Z,18.20
2023-10-20T04:14:57.795Z,17.88
2023-10-20T04:17:25.039Z,15.82
2023-10-20T04:19:52.058Z,16.40
2023-10-20T04:22:19.018Z,16.23
2023-10-20T04:24:45.950Z,15.93
2023-10-20T04:27:13.436Z,15.57
2023-10-20T04:29:40.426Z,15.63
2023-10-20T04:32:07.479Z,15.25
2023-10-20T04:34:34.441Z,15.43
2023-10-20T04:37:01.496Z,14.70
2023-10-20T04:39:28.416Z,14.18
2023-10-20T04:41:55.399Z,16.40
2023-10-20T04:44:22.534Z,16.73
2023-10-20T04:46:50.896Z,15.77
2023-10-20T04:49:17.648Z,16.07
2023-10-20T04:51:44.478Z,15.57
2023-10-20T04:54:11.280Z,17.25
2023-10-20T04:56:38.203Z,16.38
2023-10-20T04:59:05.190Z,15.73
2023-10-20T05:01:33.713Z,15.53
2023-10-20T05:04:00.782Z,16.73
2023-10-20T05:06:27.770Z,16.77
2023-10-20T05:08:54.818Z,16.70
2023-10-20T05:11:21.703Z,15.90
2023-10-20T05:13:48.546Z,13.80
2023-10-20T05:16:15.448Z,15.05
2023-10-20T05:18:42.502Z,14.60
2023-10-20T05:21:09.968Z,13.70
2023-10-20T05:23:37.605Z,13.15
2023-10-20T05:26:04.987Z,12.97
2023-10-20T05:28:32.085Z,12.50
2023-10-20T05:30:59.194Z,13.45
2023-10-20T05:33:26.204Z,13.40
2023-10-20T05:35:54.142Z,14.35
2023-10-20T05:38:20.993Z,14.60
2023-10-20T05:41:01.485Z,15.20
2023-10-20T05:43:29.038Z,14.45
2023-10-20T05:45:56.056Z,13.52
2023-10-20T05:48:22.932Z,13.77
2023-10-20T05:50:58.801Z,14.93
2023-10-20T05:53:26.466Z,14.50
2023-10-20T05:55:53.976Z,13.15
2023-10-20T05:58:20.815Z,13.15
2023-10-20T06:01:01.782Z,12.52
2023-10-20T06:03:29.751Z,13.03
2023-10-20T06:06:01.023Z,12.57
2023-10-20T06:08:29.456Z,13.95
2023-10-20T06:11:07.013Z,13.45
2023-10-20T06:13:35.817Z,13.40
2023-10-20T06:16:10.508Z,12.77
2023-10-20T06:18:39.864Z,12.20
2023-10-20T06:21:12.398Z,12.65
2023-10-20T06:23:39.210Z,12.63
2023-10-20T06:26:06.243Z,12.88
2023-10-20T06:28:33.563Z,12.77
2023-10-20T06:31:00.403Z,12.50
2023-10-20T06:33:27.846Z,12.13
2023-10-20T06:35:54.869Z,12.68
2023-10-20T06:38:23.515Z,12.75
2023-10-20T06:40:50.493Z,12.40
2023-10-20T06:43:17.896Z,13.45
2023-10-20T06:45:46.021Z,13.32
2023-10-20T06:48:12.935Z,12.30
2023-10-20T06:50:40.128Z,13.30
2023-10-20T06:53:07.115Z,13.10
2023-10-20T06:58:24.230Z,13.38
2023-10-20T07:00:51.043Z,12.15
2023-10-20T07:03:18.022Z,12.23
2023-10-20T07:05:45.737Z,13.07
2023-10-20T07:08:12.740Z,12.98
2023-10-20T07:10:39.624Z,15.15
2023-10-20T07:13:07.146Z,13.30
2023-10-20T07:15:37.180Z,14.70
2023-10-20T07:18:05.138Z,13.63
2023-10-20T07:20:33.043Z,14.27
2023-10-20T07:23:00.877Z,14.18
2023-10-20T07:25:28.664Z,13.68
2023-10-20T07:27:56.224Z,15.02
2023-10-20T07:30:24.358Z,15.50
2023-10-20T07:32:52.057Z,13.98
2023-10-20T07:35:19.512Z,14.73
2023-10-20T07:37:46.547Z,13.88
2023-10-20T07:40:13.788Z,13.40
2023-10-20T07:42:42.049Z,14.30
2023-10-20T07:45:09.723Z,14.05
2023-10-20T07:47:36.723Z,15.18
2023-10-20T07:50:04.263Z,14.15
2023-10-20T07:52:32.408Z,13.52
2023-10-20T07:54:59.262Z,14.40
2023-10-20T07:57:26.130Z,14.13
2023-10-20T07:59:52.989Z,14.40
2023-10-20T08:02:19.844Z,15.23
2023-10-20T08:04:46.980Z,14.27
2023-10-20T08:07:13.994Z,14.80
2023-10-20T08:09:41.045Z,14.57
2023-10-20T08:12:07.918Z,16.08
2023-10-20T08:14:34.803Z,15.98
2023-10-20T08:17:01.813Z,16.60
2023-10-20T08:19:28.631Z,14.57
2023-10-20T08:21:55.586Z,15.07
2023-10-20T08:24:22.543Z,14.68
2023-10-20T08:26:50.006Z,13.88
2023-10-20T08:29:16.885Z,14.75
2023-10-20T08:31:43.799Z,15.33
2023-10-20T08:34:10.721Z,14.50
2023-10-20T08:36:37.639Z,15.13
2023-10-20T08:39:04.796Z,14.43
2023-10-20T08:41:31.652Z,14.43
2023-10-20T08:43:58.737Z,12.03
2023-10-20T08:46:27.036Z,9.38
2023-10-20T08:48:55.029Z,5.85
2023-10-20T08:51:22.828Z,2.92
2023-10-20T08:53:49.677Z,2.58
2023-10-20T08:56:16.684Z,2.27
2023-10-20T08:58:46.764Z,1.60
2023-10-20T09:01:14.846Z,1.45
2023-10-20T09:03:45.196Z,0.98
2023-10-20T09:06:14.444Z,1.05
2023-10-20T09:08:42.677Z,1.77
2023-10-20T09:11:10.525Z,1.55
2023-10-20T09:13:39.260Z,0.90
2023-10-20T09:16:15.556Z,1.25
2023-10-20T09:18:49.713Z,1.10
2023-10-20T09:21:25.614Z,0.90
2023-10-20T09:24:01.947Z,1.00
2023-10-20T09:26:31.991Z,1.40
2023-10-20T09:28:59.567Z,1.45
2023-10-20T09:31:29.244Z,1.20
2023-10-20T09:33:56.519Z,1.27
2023-10-20T09:36:23.676Z,1.10
2023-10-20T09:38:55.235Z,1.10
2023-10-20T09:41:27.118Z,2.92
2023-10-20T09:44:08.541Z,1.75
2023-10-20T09:46:54.237Z,1.50
2023-10-20T09:49:24.394Z,1.20
2023-10-20T09:51:54.324Z,1.20
2023-10-20T09:54:33.753Z,1.70
2023-10-20T09:57:01.949Z,1.65
2023-10-20T09:59:29.448Z,1.10
2023-10-20T10:01:57.742Z,1.00
2023-10-20T10:04:29.527Z,1.35
2023-10-20T10:06:56.917Z,1.05
2023-10-20T10:09:23.829Z,1.08
2023-10-20T10:11:55.852Z,1.60
2023-10-20T10:14:24.388Z,1.48
2023-10-20T10:16:53.011Z,1.30
2023-10-20T10:19:20.747Z,1.10
2023-10-20T10:21:51.099Z,0.90
2023-10-20T10:24:20.737Z,1.40
2023-10-20T10:26:57.730Z,1.13
2023-10-20T10:29:52.810Z,0.80
2023-10-20T10:32:24.289Z,0.90
2023-10-20T10:34:56.604Z,1.10
2023-10-20T10:37:35.713Z,1.17
2023-10-20T10:40:22.883Z,0.95
2023-10-20T10:42:53.739Z,0.88
2023-10-20T10:45:24.733Z,0.95
2023-10-20T10:48:03.721Z,0.82
2023-10-20T10:50:31.203Z,1.93
2023-10-20T10:52:58.063Z,0.90
2023-10-20T10:55:25.080Z,0.93
2023-10-20T10:57:53.225Z,1.25
2023-10-20T11:00:20.878Z,1.20
2023-10-20T11:02:48.536Z,1.23
2023-10-20T11:05:17.179Z,0.98
2023-10-20T11:08:04.733Z,0.98
2023-10-20T11:10:33.799Z,1.00
2023-10-20T11:13:28.699Z,0.82
2023-10-20T11:15:55.591Z,0.80
2023-10-20T11:18:22.685Z,1.00
2023-10-20T11:20:49.985Z,0.80
2023-10-20T11:23:16.892Z,0.70
2023-10-20T11:25:43.938Z,1.50
2023-10-20T11:28:11.145Z,0.93
2023-10-20T11:30:40.018Z,1.00
2023-10-20T11:33:07.433Z,1.00
2023-10-20T11:35:34.726Z,1.00
2023-10-20T11:38:02.213Z,0.90
2023-10-20T11:40:30.271Z,0.70
2023-10-20T11:42:57.483Z,0.80
2023-10-20T11:45:25.114Z,0.90
2023-10-20T11:47:52.548Z,1.17
2023-10-20T11:50:19.982Z,0.90
2023-10-20T11:52:47.152Z,1.00
2023-10-20T11:55:14.545Z,0.70
2023-10-20T11:57:42.092Z,0.30
2023-10-20T12:00:10.305Z,0.50
2023-10-20T12:02:41.142Z,0.60
2023-10-20T12:05:08.994Z,0.73
2023-10-20T12:07:36.477Z,0.75
2023-10-20T12:10:04.049Z,0.50
2023-10-20T12:12:30.989Z,0.50
2023-10-20T12:14:58.041Z,0.60
2023-10-20T12:17:25.020Z,0.50
2023-10-20T12:19:51.985Z,1.08
2023-10-20T12:22:18.856Z,0.80
2023-10-20T12:24:45.781Z,0.40
2023-10-20T12:27:14.351Z,1.02
2023-10-20T12:29:41.660Z,0.90
2023-10-20T12:32:08.801Z,0.75
2023-10-20T12:34:35.850Z,1.23
2023-10-20T12:37:02.894Z,0.93
2023-10-20T12:39:29.805Z,0.85
2023-10-20T12:41:56.823Z,1.13
2023-10-20T12:44:23.748Z,1.00
2023-10-20T12:46:50.742Z,1.25
2023-10-20T12:49:17.738Z,1.10
2023-10-20T12:51:44.722Z,1.00
2023-10-20T12:54:11.534Z,1.00
2023-10-20T12:56:38.407Z,1.30
2023-10-20T12:59:05.322Z,1.48
2023-10-20T13:01:32.149Z,1.73
2023-10-20T13:03:59.041Z,1.70
2023-10-20T13:06:25.882Z,1.17
2023-10-20T13:08:52.877Z,1.33
2023-10-20T13:11:19.912Z,1.42
2023-10-20T13:13:46.776Z,1.13
2023-10-20T13:16:13.697Z,1.55
2023-10-20T13:18:40.723Z,1.60
2023-10-20T13:21:07.710Z,1.50
2023-10-20T13:23:34.908Z,1.40
2023-10-20T13:26:02.677Z,1.45
2023-10-20T13:28:29.516Z,1.40
2023-10-20T13:31:08.974Z,1.70
2023-10-20T13:33:36.383Z,1.70
2023-10-20T13:36:04.504Z,1.80
2023-10-20T13:38:33.029Z,1.77
2023-10-20T13:41:00.226Z,1.70
2023-10-20T13:43:27.205Z,1.90
2023-10-20T13:45:54.182Z,3.53
2023-10-20T13:48:21.145Z,1.90
2023-10-20T13:50:48.203Z,1.67
2023-10-20T13:53:15.716Z,2.35
2023-10-20T13:55:43.797Z,2.10
2023-10-20T13:58:10.811Z,3.45
2023-10-20T14:00:37.793Z,2.75
2023-10-20T14:03:05.406Z,1.90
2023-10-20T14:05:33.156Z,2.17
2023-10-20T14:08:01.071Z,2.33
2023-10-20T14:10:28.808Z,2.00
2023-10-20T14:12:57.245Z,1.50
2023-10-20T14:15:25.054Z,1.83
2023-10-20T14:17:52.013Z,1.48
2023-10-20T14:20:19.470Z,2.17
2023-10-20T14:22:46.381Z,1.90
2023-10-20T14:25:13.165Z,2.10
2023-10-20T14:27:40.652Z,1.80
2023-10-20T14:30:08.268Z,1.63
2023-10-20T14:32:35.451Z,1.63
2023-10-20T14:35:02.732Z,2.55
2023-10-20T14:37:30.914Z,1.27
2023-10-20T14:39:58.841Z,2.45
2023-10-20T14:42:25.704Z,1.92
2023-10-20T14:44:52.589Z,1.90
2023-10-20T14:47:19.544Z,2.60
2023-10-20T14:49:46.573Z,1.92
2023-10-20T14:52:13.795Z,2.70
2023-10-20T14:54:42.478Z,1.92
2023-10-20T14:57:09.434Z,1.83
2023-10-20T14:59:36.663Z,2.33
2023-10-20T15:02:06.904Z,1.80
2023-10-20T15:04:34.045Z,2.00
2023-10-20T15:07:01.293Z,1.42
2023-10-20T15:09:28.212Z,1.97
2023-10-20T15:11:55.347Z,1.80
2023-10-20T15:14:22.404Z,1.70
2023-10-20T15:16:49.457Z,2.13
2023-10-20T15:19:17.175Z,2.28
2023-10-20T15:21:44.527Z,1.83
2023-10-20T15:24:11.524Z,1.70
2023-10-20T15:26:38.437Z,2.10
2023-10-20T15:29:05.362Z,1.63
2023-10-20T15:31:32.499Z,1.92
2023-10-20T15:33:59.565Z,2.23
2023-10-20T15:36:26.987Z,1.58
2023-10-20T15:38:53.855Z,2.28
2023-10-20T15:41:20.851Z,1.90
2023-10-20T15:43:47.739Z,1.80
2023-10-20T15:46:14.666Z,1.70
2023-10-20T15:48:42.680Z,1.63
2023-10-20T15:51:10.001Z,1.83
2023-10-20T15:53:37.017Z,2.08
2023-10-20T15:56:04.102Z,1.35
2023-10-20T15:58:30.992Z,1.90
2023-10-20T16:00:59.232Z,1.52
2023-10-20T16:03:26.439Z,1.67
2023-10-20T16:05:53.638Z,2.33
2023-10-20T16:08:20.486Z,2.33
2023-10-20T16:10:47.394Z,1.57
2023-10-20T16:13:14.342Z,1.85
2023-10-20T16:15:41.204Z,1.52
2023-10-20T16:18:08.223Z,1.90
2023-10-20T16:20:35.548Z,1.90
2023-10-20T16:23:02.506Z,2.10
2023-10-20T16:25:29.496Z,2.22
2023-10-20T16:27:56.537Z,2.47
2023-10-20T16:30:23.537Z,2.33
2023-10-20T16:32:50.771Z,2.00
2023-10-20T16:35:17.910Z,2.30
2023-10-20T16:37:46.227Z,1.45
2023-10-20T16:40:13.785Z,1.92
2023-10-20T16:42:41.032Z,1.67
2023-10-20T16:45:08.646Z,1.85
2023-10-20T16:47:35.887Z,2.10
2023-10-20T16:50:03.208Z,2.10
2023-10-20T16:52:32.365Z,1.98
2023-10-20T16:54:59.506Z,2.20
2023-10-20T16:57:26.925Z,2.30
2023-10-20T16:59:54.300Z,2.17
2023-10-20T17:02:22.074Z,2.10
2023-10-20T17:04:49.237Z,2.28
2023-10-20T17:07:16.409Z,2.38
2023-10-20T17:09:43.464Z,2.53
2023-10-20T17:12:11.177Z,2.20
2023-10-20T17:14:38.364Z,2.05
2023-10-20T17:17:05.402Z,2.88
2023-10-20T17:19:32.578Z,3.05
2023-10-20T17:21:59.665Z,2.60
2023-10-20T17:24:26.938Z,3.03
2023-10-20T17:26:53.914Z,3.58
2023-10-20T17:29:22.601Z,3.78
2023-10-20T17:31:50.297Z,4.07
2023-10-20T17:34:17.930Z,5.35
2023-10-20T17:36:45.580Z,3.10
2023-10-20T17:39:12.662Z,5.38
2023-10-20T17:41:40.301Z,5.05
2023-10-20T17:44:07.701Z,3.88
2023-10-20T17:46:35.114Z,3.60
2023-10-20T17:49:02.583Z,3.20
2023-10-20T17:51:29.982Z,2.28
2023-10-20T17:53:58.133Z,3.05
2023-10-20T17:56:26.252Z,4.13
2023-10-20T17:58:53.442Z,5.63
2023-10-20T18:01:21.646Z,5.93
2023-10-20T18:03:49.386Z,9.07
2023-10-20T18:06:21.406Z,8.57
2023-10-20T18:08:51.559Z,5.70
2023-10-20T18:11:20.989Z,4.05
2023-10-20T18:13:50.279Z,4.50
2023-10-20T18:16:21.220Z,3.45
2023-10-20T18:18:50.624Z,3.28
2023-10-20T18:21:20.941Z,3.40
2023-10-20T18:23:49.236Z,2.28
2023-10-20T18:26:16.971Z,2.07
2023-10-20T18:28:44.610Z,2.17
2023-10-20T18:31:16.743Z,1.90
2023-10-20T18:33:48.139Z,1.90
2023-10-20T18:36:15.859Z,2.28
2023-10-20T18:38:43.745Z,1.90
2023-10-20T18:41:18.023Z,1.58
2023-10-20T18:43:46.024Z,1.63
2023-10-20T18:46:14.441Z,2.22
2023-10-20T18:48:42.729Z,2.45
2023-10-20T18:51:12.490Z,1.87
2023-10-20T18:53:42.531Z,1.67
2023-10-20T18:56:10.911Z,2.08
2023-10-20T18:58:39.171Z,2.22
2023-10-20T19:03:51.826Z,2.03
2023-10-20T19:06:22.568Z,2.40
2023-10-20T19:08:52.256Z,2.28
2023-10-20T19:11:20.797Z,2.22
2023-10-20T19:13:55.896Z,1.52
2023-10-20T19:16:24.158Z,2.17
2023-10-20T19:18:54.162Z,1.95
2023-10-20T19:21:23.086Z,2.65
2023-10-20T19:23:51.213Z,2.65
2023-10-20T19:26:19.505Z,1.95
2023-10-20T19:28:47.915Z,2.13
2023-10-20T19:31:15.386Z,2.10
2023-10-20T19:33:42.894Z,2.30
2023-10-20T19:36:11.094Z,1.95
2023-10-20T19:38:39.174Z,2.35
2023-10-20T19:41:07.605Z,2.13
2023-10-20T19:43:34.663Z,1.95
2023-10-20T19:46:02.741Z,2.03
2023-10-20T19:48:30.152Z,2.08
2023-10-20T19:50:58.561Z,2.65
2023-10-20T19:53:26.410Z,2.10
2023-10-20T19:55:53.637Z,2.25
2023-10-20T19:58:21.877Z,2.00
2023-10-20T20:00:49.740Z,1.85
2023-10-20T20:03:16.980Z,2.30
2023-10-20T20:05:44.283Z,1.90
2023-10-20T20:08:11.489Z,1.92
2023-10-20T20:10:38.494Z,2.10
2023-10-20T20:13:06.553Z,2.30
2023-10-20T20:15:33.641Z,2.25
2023-10-20T20:18:00.685Z,1.90
2023-10-20T20:20:27.866Z,2.10
2023-10-20T20:22:55.108Z,2.38
2023-10-20T20:25:22.270Z,2.33
2023-10-20T20:27:49.574Z,2.30
2023-10-20T20:30:16.917Z,1.97
2023-10-20T20:32:44.149Z,1.90
2023-10-20T20:35:11.146Z,1.95
2023-10-20T20:37:38.115Z,1.90
2023-10-20T20:40:06.617Z,1.92
2023-10-20T20:42:33.560Z,2.30
2023-10-20T20:45:00.541Z,1.92
2023-10-20T20:47:27.524Z,2.40
2023-10-20T20:49:54.473Z,2.13
2023-10-20T20:52:21.409Z,2.35
2023-10-20T20:54:48.321Z,2.50
2023-10-20T20:57:15.199Z,2.42
2023-10-20T20:59:42.252Z,2.38
2023-10-20T21:02:09.281Z,2.38
2023-10-20T21:04:36.296Z,1.85
2023-10-20T21:07:04.264Z,2.20
2023-10-20T21:09:32.713Z,2.63
2023-10-20T21:11:59.714Z,1.90
2023-10-20T21:14:26.786Z,2.10
2023-10-20T21:16:54.268Z,2.08
2023-10-20T21:19:21.214Z,2.10
2023-10-20T21:21:48.177Z,2.40
2023-10-20T21:24:14.996Z,1.90
2023-10-20T21:26:42.151Z,2.40
2023-10-20T21:29:09.056Z,2.90
2023-10-20T21:31:35.958Z,2.43
2023-10-20T21:34:02.896Z,2.30
2023-10-20T21:36:30.176Z,2.45
2023-10-20T21:38:57.162Z,2.13
2023-10-20T21:41:24.353Z,2.83
2023-10-20T21:43:51.262Z,2.17
2023-10-20T21:46:18.211Z,2.60
2023-10-20T21:48:45.310Z,2.53
2023-10-20T21:51:12.412Z,2.53
2023-10-20T21:53:40.165Z,2.63
2023-10-20T21:56:09.337Z,2.47
2023-10-20T21:58:37.118Z,2.28
2023-10-20T22:01:05.718Z,2.30
2023-10-20T22:03:32.978Z,3.00
2023-10-20T22:06:01.230Z,2.80
2023-10-20T22:08:28.173Z,2.37
2023-10-20T22:10:55.245Z,2.22
2023-10-20T22:13:22.267Z,2.85
2023-10-20T22:15:49.812Z,2.90
2023-10-20T22:18:16.905Z,3.17
2023-10-20T22:20:44.560Z,2.73
2023-10-20T22:23:12.054Z,2.42
2023-10-20T22:25:39.697Z,3.22
2023-10-20T22:28:07.134Z,3.28
2023-10-20T22:30:34.279Z,2.97
2023-10-20T22:33:01.416Z,1.87
2023-10-20T22:35:28.611Z,2.72
2023-10-20T22:37:55.642Z,2.92
2023-10-20T22:40:22.787Z,2.65
2023-10-20T22:42:49.930Z,2.67
2023-10-20T22:45:16.991Z,2.70
2023-10-20T22:47:44.074Z,2.65
2023-10-20T22:50:11.090Z,3.20
2023-10-20T22:52:38.062Z,2.97
2023-10-20T22:55:05.307Z,2.80
2023-10-20T22:57:32.331Z,3.03
2023-10-20T22:59:59.268Z,4.05
2023-10-20T23:02:26.250Z,2.20
2023-10-20T23:04:53.217Z,2.72
2023-10-20T23:07:20.387Z,3.00
2023-10-20T23:09:47.341Z,2.80
2023-10-20T23:12:14.279Z,3.17
2023-10-20T23:14:41.285Z,2.75
2023-10-20T23:17:08.357Z,2.40
2023-10-20T23:19:37.438Z,2.70
2023-10-20T23:22:04.761Z,3.63
2023-10-20T23:24:31.707Z,2.65
2023-10-20T23:26:58.643Z,2.50
2023-10-20T23:29:25.617Z,3.13
2023-10-20T23:31:52.625Z,3.75
2023-10-20T23:34:19.518Z,2.90
2023-10-20T23:36:46.380Z,3.50
2023-10-20T23:39:13.435Z,2.80
2023-10-20T23:41:40.446Z,2.63
2023-10-20T23:44:07.517Z,2.70
2023-10-20T23:46:34.401Z,2.77
2023-10-20T23:49:02.502Z,2.60
2023-10-20T23:51:29.562Z,3.35
2023-10-20T23:53:56.511Z,2.90
2023-10-20T23:56:23.645Z,2.95
2023-10-20T23:58:50.524Z,3.10
